AEE7DB LGAV-LDDU
Flight info
| Callsign | AEE7DB |
|---|---|
| Flight time | 1h 10m |
| Altitude | 34000 |
| Route | KOR UL53 IXONI DCT YNN UL611 TUMBO DCT OVVER DCT RODON DCT MOKUN |
| Aircraft | A21N/M-SDE2E3FGHIJ1RWXY/LB1 |
Departure
| Time | 2026-05-06 15:47 |
|---|---|
| Airport | Athens Eleftherios Venizelos International Airport (LGAV) |
Arrival
| Time | 2026-05-06 16:57 |
|---|---|
| Airport | Dubrovnik Ruđer Bošković Airport (LDDU) |
| Time | Latitude | Longitude | Altitude | Speed | Heading |
|---|---|---|---|---|---|
| 2026-05-06 15:19 | 37.94167 | 23.95302 | 306 ft | 0 kts | 217° |
| 2026-05-06 15:36 | 37.94167 | 23.95303 | 306 ft | 1 kts | 217° |
| 2026-05-06 15:36 | 37.94183 | 23.95318 | 306 ft | 0 kts | 217° |
| 2026-05-06 15:36 | 37.94196 | 23.95331 | 306 ft | 0 kts | 218° |
| 2026-05-06 15:36 | 37.94212 | 23.95346 | 306 ft | 0 kts | 217° |
| 2026-05-06 15:37 | 37.94229 | 23.95360 | 306 ft | 3 kts | 202° |
| 2026-05-06 15:37 | 37.94244 | 23.95364 | 306 ft | 0 kts | 153° |
| 2026-05-06 15:37 | 37.94254 | 23.95351 | 307 ft | 0 kts | 127° |
| 2026-05-06 15:37 | 37.94262 | 23.95337 | 306 ft | 0 kts | 127° |
| 2026-05-06 15:40 | 37.94262 | 23.95338 | 306 ft | 1 kts | 127° |
| 2026-05-06 15:40 | 37.94251 | 23.95356 | 309 ft | 4 kts | 127° |
| 2026-05-06 15:41 | 37.94230 | 23.95392 | 307 ft | 6 kts | 127° |
| 2026-05-06 15:41 | 37.94201 | 23.95439 | 307 ft | 8 kts | 127° |
| 2026-05-06 15:41 | 37.94166 | 23.95498 | 305 ft | 9 kts | 127° |
| 2026-05-06 15:41 | 37.94124 | 23.95568 | 306 ft | 11 kts | 127° |
| 2026-05-06 15:42 | 37.94081 | 23.95639 | 304 ft | 8 kts | 122° |
| 2026-05-06 15:42 | 37.94097 | 23.95703 | 304 ft | 9 kts | 43° |
| 2026-05-06 15:42 | 37.94153 | 23.95758 | 304 ft | 11 kts | 37° |
| 2026-05-06 15:42 | 37.94220 | 23.95823 | 304 ft | 13 kts | 37° |
| 2026-05-06 15:43 | 37.94298 | 23.95897 | 305 ft | 15 kts | 37° |
| 2026-05-06 15:43 | 37.94386 | 23.95981 | 303 ft | 17 kts | 37° |
| 2026-05-06 15:43 | 37.94483 | 23.96072 | 305 ft | 18 kts | 37° |
| 2026-05-06 15:43 | 37.94588 | 23.96172 | 304 ft | 20 kts | 37° |
| 2026-05-06 15:44 | 37.94684 | 23.96262 | 306 ft | 17 kts | 37° |
| 2026-05-06 15:44 | 37.94780 | 23.96353 | 306 ft | 18 kts | 37° |
| 2026-05-06 15:44 | 37.94881 | 23.96449 | 306 ft | 16 kts | 37° |
| 2026-05-06 15:44 | 37.94972 | 23.96535 | 311 ft | 15 kts | 37° |
| 2026-05-06 15:45 | 37.95047 | 23.96607 | 310 ft | 14 kts | 37° |
| 2026-05-06 15:45 | 37.95130 | 23.96686 | 309 ft | 16 kts | 37° |
| 2026-05-06 15:45 | 37.95222 | 23.96773 | 308 ft | 17 kts | 37° |
| 2026-05-06 15:45 | 37.95299 | 23.96855 | 311 ft | 11 kts | 69° |
| 2026-05-06 15:46 | 37.95268 | 23.96947 | 311 ft | 13 kts | 126° |
| 2026-05-06 15:46 | 37.95221 | 23.97026 | 314 ft | 6 kts | 138° |
| 2026-05-06 15:46 | 37.95181 | 23.97013 | 314 ft | 6 kts | 216° |
| 2026-05-06 15:46 | 37.95073 | 23.96910 | 314 ft | 49 kts | 217° |
| 2026-05-06 15:47 | 37.94585 | 23.96448 | 298 ft | 122 kts | 217° |
| 2026-05-06 15:47 | 37.93766 | 23.95670 | 388 ft | 160 kts | 217° |
| 2026-05-06 15:47 | 37.92889 | 23.94849 | 1063 ft | 156 kts | 214° |
| 2026-05-06 15:47 | 37.91953 | 23.94152 | 1652 ft | 157 kts | 206° |
| 2026-05-06 15:48 | 37.90980 | 23.93496 | 2216 ft | 161 kts | 207° |
| 2026-05-06 15:48 | 37.89972 | 23.92844 | 2832 ft | 165 kts | 206° |
| 2026-05-06 15:48 | 37.88892 | 23.92173 | 3311 ft | 181 kts | 206° |
| 2026-05-06 15:48 | 37.87726 | 23.91437 | 3848 ft | 193 kts | 209° |
| 2026-05-06 15:49 | 37.86511 | 23.90601 | 4440 ft | 206 kts | 210° |
| 2026-05-06 15:49 | 37.85212 | 23.89709 | 4996 ft | 219 kts | 210° |
| 2026-05-06 15:49 | 37.83815 | 23.88753 | 5461 ft | 238 kts | 210° |
| 2026-05-06 15:49 | 37.82308 | 23.87722 | 6019 ft | 254 kts | 210° |
| 2026-05-06 15:50 | 37.80860 | 23.86368 | 6573 ft | 267 kts | 231° |
| 2026-05-06 15:50 | 37.79988 | 23.84292 | 7224 ft | 272 kts | 257° |
| 2026-05-06 15:50 | 37.79908 | 23.81923 | 8019 ft | 272 kts | 279° |
| 2026-05-06 15:50 | 37.80334 | 23.79581 | 8826 ft | 275 kts | 287° |
| 2026-05-06 15:51 | 37.80885 | 23.77248 | 9636 ft | 279 kts | 288° |
| 2026-05-06 15:51 | 37.81462 | 23.74872 | 10283 ft | 289 kts | 288° |
| 2026-05-06 15:51 | 37.82069 | 23.72359 | 10616 ft | 309 kts | 288° |
| 2026-05-06 15:51 | 37.82712 | 23.69676 | 10896 ft | 329 kts | 287° |
| 2026-05-06 15:52 | 37.83393 | 23.66825 | 11150 ft | 349 kts | 287° |
| 2026-05-06 15:52 | 37.84112 | 23.63808 | 11412 ft | 367 kts | 287° |
| 2026-05-06 15:52 | 37.84603 | 23.61743 | 11730 ft | 373 kts | 288° |
| 2026-05-06 15:52 | 37.85353 | 23.58577 | 12382 ft | 378 kts | 288° |
| 2026-05-06 15:53 | 37.86112 | 23.55381 | 13061 ft | 381 kts | 288° |
| 2026-05-06 15:53 | 37.86884 | 23.52157 | 13731 ft | 384 kts | 288° |
| 2026-05-06 15:53 | 37.87661 | 23.48903 | 14345 ft | 387 kts | 288° |
| 2026-05-06 15:53 | 37.88437 | 23.45630 | 14957 ft | 390 kts | 288° |
| 2026-05-06 15:54 | 37.89217 | 23.42333 | 15568 ft | 392 kts | 288° |
| 2026-05-06 15:54 | 37.90004 | 23.39015 | 16216 ft | 395 kts | 288° |
| 2026-05-06 15:54 | 37.90797 | 23.35674 | 16843 ft | 397 kts | 288° |
| 2026-05-06 15:54 | 37.91594 | 23.32313 | 17485 ft | 400 kts | 288° |
| 2026-05-06 15:55 | 37.92392 | 23.28928 | 18134 ft | 402 kts | 288° |
| 2026-05-06 15:55 | 37.93193 | 23.25520 | 18690 ft | 405 kts | 288° |
| 2026-05-06 15:55 | 37.93999 | 23.22092 | 19213 ft | 407 kts | 288° |
| 2026-05-06 15:55 | 37.94810 | 23.18643 | 19724 ft | 410 kts | 288° |
| 2026-05-06 15:56 | 37.95629 | 23.15167 | 20222 ft | 413 kts | 288° |
| 2026-05-06 15:56 | 37.96453 | 23.11669 | 20717 ft | 416 kts | 288° |
| 2026-05-06 15:56 | 37.97280 | 23.08142 | 21198 ft | 419 kts | 288° |
| 2026-05-06 15:56 | 37.98118 | 23.04652 | 21671 ft | 421 kts | 290° |
| 2026-05-06 15:57 | 37.99294 | 23.01246 | 22141 ft | 423 kts | 300° |
| 2026-05-06 15:57 | 38.00976 | 22.98180 | 22599 ft | 425 kts | 311° |
| 2026-05-06 15:57 | 38.03074 | 22.95520 | 23085 ft | 428 kts | 317° |
| 2026-05-06 15:57 | 38.05282 | 22.92971 | 23583 ft | 431 kts | 317° |
| 2026-05-06 15:58 | 38.07510 | 22.90404 | 23966 ft | 434 kts | 317° |
| 2026-05-06 15:58 | 38.09742 | 22.87808 | 24366 ft | 436 kts | 317° |
| 2026-05-06 15:58 | 38.11977 | 22.85190 | 24768 ft | 438 kts | 317° |
| 2026-05-06 15:58 | 38.14220 | 22.82550 | 25160 ft | 441 kts | 316° |
| 2026-05-06 15:59 | 38.16468 | 22.79889 | 25541 ft | 443 kts | 316° |
| 2026-05-06 15:59 | 38.18728 | 22.77208 | 25889 ft | 445 kts | 316° |
| 2026-05-06 15:59 | 38.21000 | 22.74528 | 26326 ft | 445 kts | 316° |
| 2026-05-06 15:59 | 38.23261 | 22.71861 | 26887 ft | 442 kts | 316° |
| 2026-05-06 16:00 | 38.25509 | 22.69205 | 27404 ft | 440 kts | 316° |
| 2026-05-06 16:00 | 38.27749 | 22.66563 | 27915 ft | 438 kts | 316° |
| 2026-05-06 16:00 | 38.29981 | 22.63928 | 28399 ft | 437 kts | 315° |
| 2026-05-06 16:00 | 38.32204 | 22.61299 | 28873 ft | 435 kts | 315° |
| 2026-05-06 16:01 | 38.34420 | 22.58679 | 29350 ft | 434 kts | 315° |
| 2026-05-06 16:01 | 38.36630 | 22.56067 | 29811 ft | 433 kts | 315° |
| 2026-05-06 16:01 | 38.38829 | 22.53461 | 30232 ft | 431 kts | 315° |
| 2026-05-06 16:01 | 38.41021 | 22.50854 | 30597 ft | 430 kts | 315° |
| 2026-05-06 16:02 | 38.43206 | 22.48253 | 30961 ft | 429 kts | 315° |
| 2026-05-06 16:02 | 38.45385 | 22.45660 | 31321 ft | 428 kts | 315° |
| 2026-05-06 16:02 | 38.47558 | 22.43072 | 31671 ft | 427 kts | 315° |
| 2026-05-06 16:02 | 38.49727 | 22.40489 | 32005 ft | 426 kts | 315° |
| 2026-05-06 16:03 | 38.51889 | 22.37914 | 32339 ft | 424 kts | 315° |
| 2026-05-06 16:03 | 38.54043 | 22.35342 | 32666 ft | 423 kts | 315° |
| 2026-05-06 16:03 | 38.56189 | 22.32779 | 32968 ft | 422 kts | 315° |
| 2026-05-06 16:03 | 38.58332 | 22.30214 | 33282 ft | 421 kts | 315° |
| 2026-05-06 16:04 | 38.60467 | 22.27655 | 33573 ft | 420 kts | 315° |
| 2026-05-06 16:04 | 38.62570 | 22.25134 | 33856 ft | 419 kts | 315° |
| 2026-05-06 16:04 | 38.64696 | 22.22584 | 34076 ft | 420 kts | 315° |
| 2026-05-06 16:04 | 38.66825 | 22.20028 | 34099 ft | 419 kts | 315° |
| 2026-05-06 16:05 | 38.71084 | 22.14912 | 34093 ft | 419 kts | 315° |
| 2026-05-06 16:05 | 38.75328 | 22.09809 | 34093 ft | 419 kts | 315° |
| 2026-05-06 16:06 | 38.79580 | 22.04723 | 34094 ft | 417 kts | 315° |
| 2026-05-06 16:06 | 38.83796 | 21.99640 | 34088 ft | 416 kts | 315° |
| 2026-05-06 16:07 | 38.88008 | 21.94552 | 34084 ft | 416 kts | 315° |
| 2026-05-06 16:07 | 38.92213 | 21.89456 | 34087 ft | 416 kts | 315° |
| 2026-05-06 16:08 | 38.96412 | 21.84349 | 34080 ft | 416 kts | 315° |
| 2026-05-06 16:08 | 39.00612 | 21.79247 | 34090 ft | 415 kts | 315° |
| 2026-05-06 16:09 | 39.04816 | 21.74133 | 34093 ft | 416 kts | 314° |
| 2026-05-06 16:09 | 39.09027 | 21.68992 | 34091 ft | 419 kts | 314° |
| 2026-05-06 16:10 | 39.13255 | 21.63814 | 34095 ft | 420 kts | 314° |
| 2026-05-06 16:10 | 39.17482 | 21.58629 | 34085 ft | 420 kts | 314° |
| 2026-05-06 16:11 | 39.21707 | 21.53431 | 34085 ft | 420 kts | 314° |
| 2026-05-06 16:11 | 39.25932 | 21.48240 | 34090 ft | 419 kts | 314° |
| 2026-05-06 16:12 | 39.30122 | 21.43082 | 34097 ft | 419 kts | 314° |
| 2026-05-06 16:12 | 39.34337 | 21.37883 | 34086 ft | 419 kts | 314° |
| 2026-05-06 16:13 | 39.38565 | 21.32707 | 34101 ft | 419 kts | 314° |
| 2026-05-06 16:13 | 39.42780 | 21.27505 | 34095 ft | 419 kts | 313° |
| 2026-05-06 16:14 | 39.46983 | 21.22294 | 34095 ft | 418 kts | 313° |
| 2026-05-06 16:14 | 39.51181 | 21.17077 | 34088 ft | 418 kts | 313° |
| 2026-05-06 16:15 | 39.55382 | 21.11859 | 34084 ft | 419 kts | 313° |
| 2026-05-06 16:15 | 39.59580 | 21.06626 | 34086 ft | 419 kts | 313° |
| 2026-05-06 16:16 | 39.63777 | 21.01384 | 34087 ft | 418 kts | 313° |
| 2026-05-06 16:16 | 39.67951 | 20.96180 | 34081 ft | 416 kts | 313° |
| 2026-05-06 16:17 | 39.72120 | 20.90961 | 34079 ft | 416 kts | 313° |
| 2026-05-06 16:17 | 39.76286 | 20.85737 | 34085 ft | 416 kts | 314° |
| 2026-05-06 16:18 | 39.80453 | 20.80502 | 34085 ft | 417 kts | 313° |
| 2026-05-06 16:18 | 39.84623 | 20.75238 | 34085 ft | 418 kts | 313° |
| 2026-05-06 16:19 | 39.88804 | 20.69971 | 34091 ft | 418 kts | 313° |
| 2026-05-06 16:19 | 39.92968 | 20.64711 | 34086 ft | 416 kts | 313° |
| 2026-05-06 16:20 | 39.97129 | 20.59458 | 34072 ft | 417 kts | 313° |
| 2026-05-06 16:20 | 40.01283 | 20.54182 | 34070 ft | 417 kts | 313° |
| 2026-05-06 16:21 | 40.05436 | 20.48904 | 34068 ft | 417 kts | 313° |
| 2026-05-06 16:21 | 40.09968 | 20.44111 | 34068 ft | 422 kts | 320° |
| 2026-05-06 16:22 | 40.14715 | 20.39563 | 34066 ft | 423 kts | 320° |
| 2026-05-06 16:22 | 40.19456 | 20.35001 | 34066 ft | 423 kts | 320° |
| 2026-05-06 16:23 | 40.24194 | 20.30429 | 34062 ft | 423 kts | 320° |
| 2026-05-06 16:23 | 40.28928 | 20.25844 | 34060 ft | 423 kts | 320° |
| 2026-05-06 16:24 | 40.33629 | 20.21278 | 34059 ft | 423 kts | 320° |
| 2026-05-06 16:24 | 40.38394 | 20.16645 | 34062 ft | 423 kts | 320° |
| 2026-05-06 16:25 | 40.43093 | 20.12074 | 34059 ft | 423 kts | 321° |
| 2026-05-06 16:25 | 40.47808 | 20.07472 | 34059 ft | 422 kts | 321° |
| 2026-05-06 16:26 | 40.52523 | 20.02877 | 34053 ft | 422 kts | 321° |
| 2026-05-06 16:26 | 40.57233 | 19.98270 | 34053 ft | 422 kts | 321° |
| 2026-05-06 16:27 | 40.61943 | 19.93660 | 34052 ft | 422 kts | 321° |
| 2026-05-06 16:27 | 40.66650 | 19.89033 | 34060 ft | 422 kts | 320° |
| 2026-05-06 16:28 | 40.71339 | 19.84418 | 34054 ft | 420 kts | 320° |
| 2026-05-06 16:28 | 40.76022 | 19.79801 | 34059 ft | 421 kts | 320° |
| 2026-05-06 16:29 | 40.80683 | 19.75190 | 34058 ft | 417 kts | 319° |
| 2026-05-06 16:29 | 40.85329 | 19.70591 | 34058 ft | 417 kts | 320° |
| 2026-05-06 16:30 | 40.89195 | 19.66774 | 34063 ft | 417 kts | 320° |
| 2026-05-06 16:30 | 40.94619 | 19.61388 | 34063 ft | 417 kts | 319° |
| 2026-05-06 16:31 | 40.99254 | 19.56781 | 34063 ft | 417 kts | 319° |
| 2026-05-06 16:31 | 41.03884 | 19.52156 | 34067 ft | 417 kts | 319° |
| 2026-05-06 16:32 | 41.08520 | 19.47539 | 34065 ft | 417 kts | 319° |
| 2026-05-06 16:32 | 41.13162 | 19.42896 | 34068 ft | 420 kts | 319° |
| 2026-05-06 16:33 | 41.17843 | 19.38213 | 34069 ft | 422 kts | 319° |
| 2026-05-06 16:34 | 41.24858 | 19.31167 | 34068 ft | 421 kts | 319° |
| 2026-05-06 16:34 | 41.29531 | 19.26453 | 34068 ft | 422 kts | 319° |
| 2026-05-06 16:35 | 41.34199 | 19.21732 | 34068 ft | 421 kts | 318° |
| 2026-05-06 16:35 | 41.38866 | 19.17006 | 34068 ft | 421 kts | 318° |
| 2026-05-06 16:36 | 41.43519 | 19.12311 | 34068 ft | 415 kts | 319° |
| 2026-05-06 16:36 | 41.48452 | 19.08327 | 34073 ft | 417 kts | 329° |
| 2026-05-06 16:37 | 41.53730 | 19.05095 | 34069 ft | 417 kts | 330° |
| 2026-05-06 16:37 | 41.58995 | 19.01846 | 34068 ft | 417 kts | 330° |
| 2026-05-06 16:38 | 41.64222 | 18.98609 | 34082 ft | 417 kts | 330° |
| 2026-05-06 16:38 | 41.69512 | 18.95338 | 34067 ft | 420 kts | 330° |
| 2026-05-06 16:39 | 41.74806 | 18.92052 | 34061 ft | 419 kts | 330° |
| 2026-05-06 16:39 | 41.80093 | 18.88776 | 34061 ft | 419 kts | 330° |
| 2026-05-06 16:40 | 41.85350 | 18.85512 | 33554 ft | 413 kts | 330° |
| 2026-05-06 16:40 | 41.87968 | 18.83880 | 32527 ft | 418 kts | 330° |
| 2026-05-06 16:40 | 41.90619 | 18.82229 | 31534 ft | 422 kts | 330° |
| 2026-05-06 16:40 | 41.93297 | 18.80552 | 30551 ft | 427 kts | 330° |
| 2026-05-06 16:41 | 41.95118 | 18.79407 | 29847 ft | 429 kts | 330° |
| 2026-05-06 16:41 | 41.97840 | 18.77697 | 28627 ft | 435 kts | 330° |
| 2026-05-06 16:41 | 42.00606 | 18.75972 | 27397 ft | 440 kts | 331° |
| 2026-05-06 16:41 | 42.03399 | 18.74222 | 26191 ft | 446 kts | 331° |
| 2026-05-06 16:42 | 42.06205 | 18.72468 | 25304 ft | 443 kts | 331° |
| 2026-05-06 16:42 | 42.08990 | 18.70724 | 24524 ft | 439 kts | 331° |
| 2026-05-06 16:42 | 42.11747 | 18.68999 | 23747 ft | 435 kts | 331° |
| 2026-05-06 16:42 | 42.14485 | 18.67294 | 22851 ft | 432 kts | 331° |
| 2026-05-06 16:43 | 42.17199 | 18.65599 | 22000 ft | 428 kts | 331° |
| 2026-05-06 16:43 | 42.19885 | 18.63918 | 21173 ft | 424 kts | 331° |
| 2026-05-06 16:43 | 42.22542 | 18.62238 | 20351 ft | 420 kts | 331° |
| 2026-05-06 16:43 | 42.25182 | 18.60571 | 19564 ft | 417 kts | 331° |
| 2026-05-06 16:44 | 42.27801 | 18.58915 | 18799 ft | 414 kts | 331° |
| 2026-05-06 16:44 | 42.30402 | 18.57267 | 18006 ft | 412 kts | 331° |
| 2026-05-06 16:44 | 42.32985 | 18.55629 | 17179 ft | 409 kts | 332° |
| 2026-05-06 16:44 | 42.35549 | 18.54009 | 16406 ft | 405 kts | 332° |
| 2026-05-06 16:45 | 42.38091 | 18.52401 | 15679 ft | 401 kts | 332° |
| 2026-05-06 16:45 | 42.40572 | 18.50817 | 14987 ft | 398 kts | 331° |
| 2026-05-06 16:45 | 42.42865 | 18.48816 | 14291 ft | 389 kts | 315° |
| 2026-05-06 16:45 | 42.44572 | 18.46040 | 13573 ft | 381 kts | 298° |
| 2026-05-06 16:46 | 42.45624 | 18.42806 | 12861 ft | 373 kts | 284° |
| 2026-05-06 16:46 | 42.46166 | 18.39408 | 12164 ft | 367 kts | 278° |
| 2026-05-06 16:46 | 42.46622 | 18.36022 | 11555 ft | 362 kts | 278° |
| 2026-05-06 16:46 | 42.47075 | 18.32735 | 11257 ft | 348 kts | 278° |
| 2026-05-06 16:47 | 42.47515 | 18.29582 | 11050 ft | 334 kts | 278° |
| 2026-05-06 16:47 | 42.47951 | 18.26569 | 10866 ft | 319 kts | 278° |
| 2026-05-06 16:47 | 42.48370 | 18.23694 | 10698 ft | 304 kts | 278° |
| 2026-05-06 16:47 | 42.48767 | 18.20945 | 10535 ft | 290 kts | 278° |
| 2026-05-06 16:48 | 42.49147 | 18.18306 | 10281 ft | 282 kts | 277° |
| 2026-05-06 16:48 | 42.49516 | 18.15733 | 9951 ft | 276 kts | 277° |
| 2026-05-06 16:48 | 42.49880 | 18.13174 | 9373 ft | 279 kts | 278° |
| 2026-05-06 16:48 | 42.50250 | 18.10592 | 8884 ft | 278 kts | 277° |
| 2026-05-06 16:49 | 42.50617 | 18.08029 | 8401 ft | 277 kts | 279° |
| 2026-05-06 16:49 | 42.51211 | 18.05536 | 7895 ft | 281 kts | 293° |
| 2026-05-06 16:49 | 42.52134 | 18.03223 | 7543 ft | 277 kts | 295° |
| 2026-05-06 16:49 | 42.53059 | 18.00975 | 7337 ft | 268 kts | 295° |
| 2026-05-06 16:50 | 42.53936 | 17.98809 | 7186 ft | 257 kts | 295° |
| 2026-05-06 16:50 | 42.54863 | 17.96805 | 7031 ft | 245 kts | 302° |
| 2026-05-06 16:50 | 42.56072 | 17.95231 | 6846 ft | 241 kts | 327° |
| 2026-05-06 16:50 | 42.57625 | 17.94599 | 6636 ft | 232 kts | 355° |
| 2026-05-06 16:51 | 42.59176 | 17.95109 | 6261 ft | 233 kts | 23° |
| 2026-05-06 16:51 | 42.60617 | 17.96117 | 5830 ft | 234 kts | 28° |
| 2026-05-06 16:51 | 42.62057 | 17.97151 | 5394 ft | 233 kts | 29° |
| 2026-05-06 16:51 | 42.63484 | 17.98176 | 5040 ft | 230 kts | 29° |
| 2026-05-06 16:52 | 42.64825 | 17.99322 | 4674 ft | 225 kts | 45° |
| 2026-05-06 16:52 | 42.65585 | 18.01043 | 4354 ft | 207 kts | 80° |
| 2026-05-06 16:52 | 42.65562 | 18.02909 | 4003 ft | 193 kts | 110° |
| 2026-05-06 16:52 | 42.65001 | 18.04510 | 3732 ft | 184 kts | 123° |
| 2026-05-06 16:53 | 42.64384 | 18.05985 | 3539 ft | 176 kts | 123° |
| 2026-05-06 16:53 | 42.63804 | 18.07431 | 3345 ft | 173 kts | 122° |
| 2026-05-06 16:53 | 42.63239 | 18.08856 | 3133 ft | 168 kts | 122° |
| 2026-05-06 16:53 | 42.62700 | 18.10221 | 2918 ft | 160 kts | 121° |
| 2026-05-06 16:54 | 42.62189 | 18.11517 | 2706 ft | 150 kts | 121° |
| 2026-05-06 16:54 | 42.61708 | 18.12730 | 2513 ft | 145 kts | 121° |
| 2026-05-06 16:54 | 42.61230 | 18.13941 | 2329 ft | 145 kts | 121° |
| 2026-05-06 16:54 | 42.60756 | 18.15142 | 2141 ft | 145 kts | 121° |
| 2026-05-06 16:55 | 42.60286 | 18.16330 | 1946 ft | 143 kts | 121° |
| 2026-05-06 16:55 | 42.59819 | 18.17513 | 1753 ft | 144 kts | 121° |
| 2026-05-06 16:55 | 42.59356 | 18.18683 | 1581 ft | 136 kts | 121° |
| 2026-05-06 16:55 | 42.58914 | 18.19802 | 1405 ft | 135 kts | 120° |
| 2026-05-06 16:56 | 42.58473 | 18.20920 | 1218 ft | 133 kts | 121° |
| 2026-05-06 16:56 | 42.58034 | 18.22021 | 1037 ft | 134 kts | 121° |
| 2026-05-06 16:56 | 42.57592 | 18.23147 | 846 ft | 135 kts | 121° |
| 2026-05-06 16:56 | 42.57156 | 18.24258 | 661 ft | 132 kts | 122° |
| 2026-05-06 16:57 | 42.56725 | 18.25339 | 542 ft | 124 kts | 121° |
| 2026-05-06 16:57 | 42.56384 | 18.26197 | 539 ft | 75 kts | 118° |
| 2026-05-06 16:57 | 42.56232 | 18.26587 | 539 ft | 21 kts | 120° |
| 2026-05-06 16:57 | 42.56165 | 18.26613 | 539 ft | 12 kts | 213° |
| 2026-05-06 16:58 | 42.56123 | 18.26532 | 539 ft | 10 kts | 241° |
| 2026-05-06 16:58 | 42.56102 | 18.26459 | 539 ft | 8 kts | 270° |
| 2026-05-06 16:58 | 42.56127 | 18.26378 | 539 ft | 10 kts | 297° |
| 2026-05-06 16:58 | 42.56153 | 18.26311 | 539 ft | 4 kts | 298° |
| 2026-05-06 16:59 | 42.56137 | 18.26272 | 539 ft | 6 kts | 215° |
| 2026-05-06 16:59 | 42.56118 | 18.26256 | 539 ft | 2 kts | 210° |
| 2026-05-06 16:59 | 42.56110 | 18.26250 | 539 ft | 0 kts | 208° |